Main page
METAR-TAF:

METAR-TAF

Airports :

Ghedi Air Base

Brescia Ghedi, Italy

latitude: 45-25N, longitude: 010-17E, elevation: 102 m

Current weather observation

The report was made 1 hour and 14 minutes ago, at 17:55 UTC
Wind 3 kt from the West/Southwest
Temperature 15°C
Humidity 94%
Pressure 1026 hPa
Visibility: 4000 m
mist

METAR: LIPL 131755Z 25003KT 4000 BR NSC 15/14 Q1026 RMK SCT SCT120 VIS MIN 4000 WIND THR31 24003KT WIND THR13 23002KT GRN

Time: 20:09 (19:09 UTC)

Forecast

The report was made 2 hours and 9 minutes ago, at 17:00 UTC
Forecast valid from 13 at 18 UTC to 14 at 03 UTC
Wind 3 kt from variable directions
Visibility: 4000 m
Scattered clouds at a height of 8500 ft
mist
Becoming
from 13 at 19 UTC to 13 at 21 UTC
Visibility: 2500 m
Becoming
from 13 at 22 UTC to 13 at 24 UTC
Visibility: 1500 m
Broken clouds at a height of 500 ft
Shallow fog

TAF: LIPL 131700Z 1318/1403 VRB03KT 4000 BR SCT085 BECMG 1319/1321 2500 BECMG 1322/1324 1500 MIFG BKN005

Weather observations and forecasts of more than 4000 airports (METAR and TAF reports).

The available stations are represented by yellow and red dots on the map.

Hover mouse over dot to see the name of the station.

Then click to see weather observations and forecasts.

To change the map : click on the green buttons with a black cross to zoom in, on the green button with a dash to zoom out, or on the green arrows for adjacent maps.


METAR-TAF: